Time;durP1;ratioP1;P1;durP2;ratioP2;P2;SDS_P1;SDS_P2;PMS_P1;PMS_P2;Temp;Humidity;BMP_temperature;BMP_pressure;BME280_temperature;BME280_humidity;BME280_pressure;Samples;Min_cycle;Max_cycle;Signal;HPM_P1;HPM_P2
2021/12/14 00:01:00;;;;;;;0.00;0.00;;;7.90;99.90;;;;;;5074526;28;20279;-73
2021/12/14 00:03:30;;;;;;;0.20;0.20;;;7.90;99.90;;;;;;5074341;28;20208;-73
2021/12/14 00:05:55;;;;;;;0.40;0.40;;;7.80;99.90;;;;;;5074015;28;20173;-73
2021/12/14 00:08:23;;;;;;;0.60;0.60;;;7.80;99.90;;;;;;5074224;28;20259;-73
2021/12/14 00:11:27;;;;;;;0.00;0.00;;;7.80;99.90;;;;;;5074470;28;20654;-73
2021/12/14 00:13:50;;;;;;;0.77;0.70;;;7.70;99.90;;;;;;5073264;28;20694;-73
2021/12/14 00:16:16;;;;;;;0.00;0.00;;;7.70;99.90;;;;;;5073911;28;20175;-73
2021/12/14 00:18:42;;;;;;;0.40;0.40;;;7.70;99.90;;;;;;5074052;28;20164;-73
2021/12/14 00:21:19;;;;;;;0.17;0.17;;;7.80;99.90;;;;;;5072729;28;20203;-73
2021/12/14 00:26:32;;;;;;;1.43;0.83;;;7.80;99.90;;;;;;5073651;28;20720;-73
2021/12/14 00:28:58;;;;;;;1.07;0.97;;;7.80;99.90;;;;;;5073913;28;20181;-73
2021/12/14 00:31:23;;;;;;;1.03;0.43;;;7.80;99.90;;;;;;5072558;28;20537;-73
2021/12/14 00:33:57;;;;;;;0.77;0.77;;;7.80;99.90;;;;;;5073684;28;20223;-73
2021/12/14 00:36:23;;;;;;;3.07;0.80;;;7.90;99.90;;;;;;5073493;28;20172;-73
2021/12/14 00:38:54;;;;;;;1.03;0.93;;;7.90;99.90;;;;;;5070864;28;20172;-73
2021/12/14 00:41:29;;;;;;;0.70;0.70;;;7.90;99.90;;;;;;5053598;28;20683;-73
2021/12/14 00:43:55;;;;;;;0.20;0.20;;;7.90;99.90;;;;;;5060723;28;20201;-73
2021/12/14 00:46:22;;;;;;;1.00;0.97;;;7.90;99.90;;;;;;5068352;28;20188;-72
2021/12/14 00:48:49;;;;;;;0.50;0.50;;;7.90;99.90;;;;;;5073536;28;20176;-72
2021/12/14 00:51:18;;;;;;;0.77;0.77;;;7.90;99.90;;;;;;5073319;28;20585;-73
2021/12/14 00:53:44;;;;;;;0.10;0.10;;;7.90;99.90;;;;;;5073556;28;20204;-72
2021/12/14 00:56:12;;;;;;;0.57;0.57;;;7.80;99.90;;;;;;5073141;28;20717;-73
2021/12/14 00:58:38;;;;;;;0.93;0.93;;;7.80;99.90;;;;;;5066608;28;20187;-73
2021/12/14 01:01:09;;;;;;;0.97;0.97;;;7.80;99.90;;;;;;5073190;28;20177;-73
2021/12/14 01:03:37;;;;;;;0.97;0.87;;;7.70;99.90;;;;;;5073277;28;20193;-73
2021/12/14 01:06:10;;;;;;;0.47;0.47;;;7.70;99.90;;;;;;5072687;28;20184;-73
2021/12/14 01:08:39;;;;;;;2.90;1.33;;;7.70;99.90;;;;;;5073224;28;20184;-73
2021/12/14 01:11:30;;;;;;;0.30;0.30;;;7.70;99.90;;;;;;5073032;28;20203;-73
2021/12/14 01:14:04;;;;;;;0.53;0.23;;;7.70;99.90;;;;;;5072316;28;20208;-73
2021/12/14 01:16:47;;;;;;;1.93;1.63;;;7.70;99.90;;;;;;5072696;28;20635;-73
2021/12/14 01:19:23;;;;;;;0.33;0.33;;;7.80;99.90;;;;;;5072871;28;20181;-72
2021/12/14 01:27:14;;;;;;;1.13;0.57;;;7.80;99.90;;;;;;5072501;28;20520;-72
2021/12/14 01:29:42;;;;;;;1.37;1.27;;;7.80;99.90;;;;;;5072778;28;20188;-72
2021/12/14 01:32:08;;;;;;;0.87;0.87;;;7.80;99.90;;;;;;5072398;28;20274;-72
2021/12/14 01:34:36;;;;;;;0.37;0.20;;;7.80;99.90;;;;;;5072525;28;20204;-72
2021/12/14 01:37:08;;;;;;;8.13;2.17;;;7.80;99.90;;;;;;5072280;28;20287;-73
2021/12/14 01:42:11;;;;;;;0.40;0.40;;;7.60;99.90;;;;;;5057721;28;20180;-72
2021/12/14 01:45:09;;;;;;;0.30;0.30;;;7.60;99.90;;;;;;5071163;28;20200;-73
2021/12/14 01:47:39;;;;;;;0.37;0.27;;;7.60;99.90;;;;;;5056227;28;20197;-73
2021/12/14 01:50:09;;;;;;;0.57;0.53;;;7.60;99.90;;;;;;5070948;28;20238;-73
2021/12/14 01:52:36;;;;;;;1.50;0.97;;;7.60;99.90;;;;;;5072196;28;20177;-73
2021/12/14 01:55:14;;;;;;;4.03;1.27;;;7.70;99.90;;;;;;5070780;28;20276;-73
2021/12/14 01:57:41;;;;;;;0.60;0.47;;;7.70;99.90;;;;;;5071730;28;20218;-73
2021/12/14 02:00:11;;;;;;;0.70;0.70;;;7.70;99.90;;;;;;5072151;28;20187;-74
2021/12/14 02:02:43;;;;;;;0.13;0.13;;;7.70;99.90;;;;;;5071815;28;20188;-74
2021/12/14 02:05:15;;;;;;;0.20;0.20;;;7.70;99.90;;;;;;5072065;28;20640;-74
2021/12/14 02:07:41;;;;;;;0.87;0.87;;;7.70;99.90;;;;;;5070150;28;20180;-73
2021/12/14 02:10:33;;;;;;;2.10;0.93;;;7.70;99.90;;;;;;5071141;28;20180;-73
2021/12/14 02:12:59;;;;;;;0.80;0.73;;;7.70;99.90;;;;;;5071288;28;20236;-73
2021/12/14 02:15:35;;;;;;;0.67;0.67;;;7.80;99.90;;;;;;5071778;28;20257;-73
2021/12/14 02:18:07;;;;;;;0.10;0.10;;;7.80;99.90;;;;;;5070041;28;20179;-73
2021/12/14 02:20:37;;;;;;;1.00;1.00;;;7.80;99.90;;;;;;5071568;28;20172;-73
2021/12/14 02:23:03;;;;;;;1.60;1.20;;;7.80;99.90;;;;;;5071393;28;20216;-73
2021/12/14 02:25:29;;;;;;;1.60;1.50;;;7.80;99.90;;;;;;5071437;28;20207;-73
2021/12/14 02:28:01;;;;;;;0.20;0.20;;;7.80;99.90;;;;;;5072496;28;20188;-73
2021/12/14 02:30:29;;;;;;;0.67;0.67;;;7.90;99.90;;;;;;5069925;28;20226;-73
2021/12/14 02:32:57;;;;;;;0.83;0.83;;;7.80;99.90;;;;;;5071343;28;20668;-73
2021/12/14 02:35:26;;;;;;;2.90;1.07;;;7.80;99.90;;;;;;5071235;28;20222;-73
2021/12/14 02:37:59;;;;;;;3.10;1.10;;;7.80;99.90;;;;;;5071084;28;20259;-73
2021/12/14 02:40:53;;;;;;;0.40;0.40;;;7.90;99.90;;;;;;5055416;28;20187;-73
2021/12/14 02:43:18;;;;;;;1.10;0.83;;;7.90;99.90;;;;;;5066466;28;20219;-73
2021/12/14 02:45:43;;;;;;;1.07;1.07;;;7.90;99.90;;;;;;5071305;28;20192;-72
2021/12/14 02:48:10;;;;;;;0.20;0.20;;;7.90;99.90;;;;;;5066078;28;20173;-73
2021/12/14 02:50:36;;;;;;;2.13;1.50;;;7.90;99.90;;;;;;5071257;28;20261;-73
2021/12/14 02:53:03;;;;;;;0.70;0.70;;;7.90;99.90;;;;;;5071095;28;20820;-72
2021/12/14 02:55:28;;;;;;;1.07;1.07;;;7.90;99.90;;;;;;5071021;28;20224;-73
2021/12/14 02:57:57;;;;;;;1.40;0.73;;;7.90;99.90;;;;;;5070834;28;20527;-73
2021/12/14 03:00:33;;;;;;;1.27;1.17;;;7.80;99.90;;;;;;5071099;28;20180;-73
2021/12/14 03:03:00;;;;;;;1.07;1.07;;;7.80;99.90;;;;;;5069767;28;20226;-72
2021/12/14 03:05:30;;;;;;;1.30;1.23;;;7.80;99.90;;;;;;5071089;28;20598;-73
2021/12/14 03:08:25;;;;;;;1.47;1.47;;;7.80;99.90;;;;;;5070690;28;20255;-72
2021/12/14 03:11:09;;;;;;;1.00;1.00;;;7.80;99.90;;;;;;5068046;28;20211;-72
2021/12/14 03:13:36;;;;;;;0.23;0.23;;;7.80;99.90;;;;;;5070406;28;20209;-72
2021/12/14 03:16:06;;;;;;;2.20;2.00;;;7.80;99.90;;;;;;5070523;28;20207;-72
2021/12/14 03:18:35;;;;;;;3.37;1.10;;;7.80;99.90;;;;;;5071121;28;20686;-72
2021/12/14 03:21:11;;;;;;;2.30;2.10;;;7.80;99.90;;;;;;5069754;28;20181;-72
2021/12/14 03:23:47;;;;;;;0.67;0.67;;;7.80;99.90;;;;;;5074875;28;20216;-72
2021/12/14 03:26:16;;;;;;;0.90;0.83;;;7.80;99.90;;;;;;5074715;28;20178;-73
2021/12/14 03:28:46;;;;;;;0.63;0.63;;;7.90;99.90;;;;;;5074754;28;20559;-72
2021/12/14 03:31:29;;;;;;;0.67;0.67;;;7.80;99.90;;;;;;5075069;28;20184;-73
2021/12/14 03:34:11;;;;;;;0.60;0.60;;;7.90;99.90;;;;;;5073290;28;20218;-73
2021/12/14 03:36:47;;;;;;;0.27;0.27;;;7.90;99.90;;;;;;5074608;28;20175;-72
2021/12/14 03:39:19;;;;;;;1.70;0.90;;;7.90;99.90;;;;;;5068800;28;20177;-73
2021/12/14 03:41:52;;;;;;;1.10;1.10;;;7.80;99.90;;;;;;5057605;28;20525;-72
2021/12/14 03:44:26;;;;;;;0.70;0.70;;;7.70;99.90;;;;;;5073347;28;20245;-72
2021/12/14 03:46:58;;;;;;;1.27;0.73;;;7.70;99.90;;;;;;5069724;28;20202;-73
2021/12/14 03:49:32;;;;;;;1.07;1.07;;;7.60;99.90;;;;;;5074158;28;20553;-72
2021/12/14 03:51:57;;;;;;;2.67;1.33;;;7.60;99.90;;;;;;5074630;28;20188;-73
2021/12/14 03:54:25;;;;;;;2.90;2.67;;;7.60;99.90;;;;;;5073089;28;20273;-73
2021/12/14 03:56:51;;;;;;;3.17;1.67;;;7.60;99.90;;;;;;5074238;28;20248;-73
2021/12/14 03:59:17;;;;;;;0.30;0.30;;;7.60;99.90;;;;;;5074295;28;20169;-73
2021/12/14 04:01:46;;;;;;;2.23;2.00;;;7.60;99.90;;;;;;5074231;28;20220;-74
2021/12/14 04:04:22;;;;;;;3.90;3.33;;;7.70;99.90;;;;;;5074143;28;20208;-73
2021/12/14 04:06:51;;;;;;;0.70;0.70;;;7.70;99.90;;;;;;5074269;28;20184;-73
2021/12/14 04:09:19;;;;;;;4.43;2.50;;;7.70;99.90;;;;;;5072829;28;20189;-73
2021/12/14 04:11:45;;;;;;;2.33;2.10;;;7.70;99.90;;;;;;5073755;28;20188;-72
2021/12/14 04:14:11;;;;;;;0.93;0.93;;;7.70;99.90;;;;;;5074072;28;20208;-72
2021/12/14 04:16:40;;;;;;;10.30;1.40;;;7.80;99.90;;;;;;5073783;28;20180;-72
2021/12/14 04:19:10;;;;;;;4.00;2.20;;;7.80;99.90;;;;;;5073453;28;20226;-72
2021/12/14 04:21:40;;;;;;;3.03;1.57;;;7.80;99.90;;;;;;5073802;28;20219;-72
2021/12/14 04:24:08;;;;;;;1.40;1.40;;;7.80;99.90;;;;;;5073861;28;20229;-72
2021/12/14 04:26:34;;;;;;;9.07;2.80;;;7.80;99.90;;;;;;5073496;28;20196;-74
2021/12/14 04:29:02;;;;;;;1.87;1.43;;;7.80;99.90;;;;;;5073876;28;20259;-74
2021/12/14 04:31:27;;;;;;;0.93;0.93;;;7.80;99.90;;;;;;5073801;28;20591;-73
2021/12/14 04:33:54;;;;;;;0.97;0.93;;;7.80;99.90;;;;;;5071670;28;20259;-73
2021/12/14 04:36:25;;;;;;;5.47;3.40;;;7.80;99.90;;;;;;5073400;28;20189;-73
2021/12/14 04:39:16;;;;;;;4.90;0.80;;;7.80;99.90;;;;;;5070859;28;20657;-73
2021/12/14 04:53:23;;;;;;;0.77;0.77;;;7.70;99.90;;;;;;5073600;28;20662;-73
2021/12/14 04:55:53;;;;;;;2.17;2.07;;;7.70;99.90;;;;;;5072021;28;20180;-73
2021/12/14 04:58:41;;;;;;;2.37;2.20;;;7.70;99.90;;;;;;5073303;28;20192;-73
2021/12/14 05:01:08;;;;;;;0.70;0.70;;;7.70;99.90;;;;;;5073044;28;20651;-73
2021/12/14 05:03:52;;;;;;;3.27;2.80;;;7.70;99.90;;;;;;5072930;28;20683;-73
2021/12/14 05:06:21;;;;;;;2.10;2.00;;;7.60;99.90;;;;;;5073050;28;20222;-73
2021/12/14 05:09:22;;;;;;;3.50;3.07;;;7.60;99.90;;;;;;5073098;28;20189;-74
2021/12/14 05:11:58;;;;;;;1.50;1.43;;;7.60;99.90;;;;;;5072758;28;20184;-73
2021/12/14 05:14:26;;;;;;;1.90;1.20;;;7.60;99.90;;;;;;5072927;28;20212;-74
2021/12/14 05:17:04;;;;;;;4.03;1.27;;;7.50;99.90;;;;;;5072676;28;20184;-74
2021/12/14 05:19:33;;;;;;;1.10;1.10;;;7.50;99.90;;;;;;5072823;28;20184;-75
2021/12/14 05:22:07;;;;;;;1.33;1.23;;;7.60;99.90;;;;;;5072985;28;20176;-74
2021/12/14 05:24:32;;;;;;;8.37;2.67;;;7.50;99.90;;;;;;5072893;28;20397;-74
2021/12/14 05:27:04;;;;;;;2.50;1.40;;;7.50;99.90;;;;;;5071951;28;20211;-74
2021/12/14 05:29:31;;;;;;;2.13;2.03;;;7.50;99.90;;;;;;5071375;28;20662;-74
2021/12/14 05:31:59;;;;;;;2.63;2.53;;;7.50;99.90;;;;;;5072741;28;20270;-74
2021/12/14 05:34:26;;;;;;;2.30;2.13;;;7.50;99.90;;;;;;5072453;28;20287;-74
2021/12/14 05:36:53;;;;;;;3.73;3.13;;;7.50;99.90;;;;;;5072273;28;20644;-74
2021/12/14 05:44:37;;;;;;;2.30;2.10;;;7.40;99.90;;;;;;5072552;28;20671;-75
2021/12/14 05:47:10;;;;;;;1.40;1.40;;;7.40;99.90;;;;;;5067863;28;20235;-74
2021/12/14 05:49:38;;;;;;;1.00;0.93;;;7.40;99.90;;;;;;5070929;28;20195;-73
2021/12/14 05:52:10;;;;;;;1.50;1.13;;;7.40;99.90;;;;;;5072325;28;20176;-74
2021/12/14 05:54:38;;;;;;;1.40;1.30;;;7.30;99.90;;;;;;5070720;28;20261;-74
2021/12/14 05:57:06;;;;;;;1.43;1.40;;;7.30;99.90;;;;;;5071971;28;20556;-75
2021/12/14 05:59:34;;;;;;;21.37;3.60;;;7.40;99.90;;;;;;5072341;28;20269;-75
2021/12/14 06:02:01;;;;;;;4.40;3.23;;;7.30;99.90;;;;;;5072112;28;20168;-74
2021/12/14 06:04:34;;;;;;;7.13;3.40;;;7.30;99.90;;;;;;5072536;28;20206;-74
2021/12/14 06:06:59;;;;;;;3.23;3.03;;;7.30;99.90;;;;;;5072662;28;20180;-75
2021/12/14 06:09:29;;;;;;;0.70;0.70;;;7.30;99.90;;;;;;5071194;28;20674;-74
2021/12/14 06:12:08;;;;;;;2.63;2.43;;;7.30;99.90;;;;;;5070430;28;20271;-74
2021/12/14 06:14:41;;;;;;;2.70;2.50;;;7.30;99.90;;;;;;5071968;28;20594;-74
2021/12/14 06:17:08;;;;;;;3.63;1.23;;;7.30;99.90;;;;;;5071436;28;20191;-74
2021/12/14 06:19:41;;;;;;;1.27;1.17;;;7.30;99.90;;;;;;5071731;28;20188;-75
2021/12/14 06:22:13;;;;;;;4.13;2.33;;;7.30;99.90;;;;;;5071519;28;20177;-74
2021/12/14 06:24:44;;;;;;;5.67;3.63;;;7.30;99.90;;;;;;5071494;28;20232;-74
2021/12/14 06:27:14;;;;;;;8.13;3.77;;;7.40;99.90;;;;;;5071481;28;20290;-74
2021/12/14 06:29:43;;;;;;;0.80;0.80;;;7.40;99.90;;;;;;5071677;28;20212;-75
2021/12/14 06:32:11;;;;;;;1.93;1.83;;;7.40;99.90;;;;;;5071451;28;20242;-75
2021/12/14 06:34:45;;;;;;;3.33;2.50;;;7.40;99.90;;;;;;5071191;28;20196;-75
2021/12/14 06:37:28;;;;;;;3.07;1.67;;;7.40;99.90;;;;;;5069750;28;20187;-74
2021/12/14 06:40:09;;;;;;;8.93;3.40;;;7.30;99.90;;;;;;5060005;28;20223;-75
2021/12/14 06:42:39;;;;;;;4.40;3.07;;;7.30;99.90;;;;;;5060827;28;20180;-74
2021/12/14 06:45:16;;;;;;;0.83;0.83;;;7.30;99.90;;;;;;5071173;28;20195;-75
2021/12/14 06:47:44;;;;;;;0.93;0.93;;;7.30;99.90;;;;;;5065694;28;20634;-75
2021/12/14 06:50:14;;;;;;;1.90;1.67;;;7.30;99.90;;;;;;5071162;28;20594;-75
2021/12/14 06:52:40;;;;;;;2.13;1.77;;;7.30;99.90;;;;;;5071133;28;20658;-73
2021/12/14 06:55:07;;;;;;;8.50;1.30;;;7.20;99.90;;;;;;5070920;28;20207;-75
2021/12/14 06:57:34;;;;;;;1.97;1.77;;;7.20;99.90;;;;;;5070842;28;20173;-74
2021/12/14 07:00:00;;;;;;;5.00;3.83;;;7.20;99.90;;;;;;5071137;28;20188;-75
2021/12/14 07:02:26;;;;;;;2.73;1.03;;;7.20;99.90;;;;;;5069880;28;20188;-74
2021/12/14 07:04:52;;;;;;;2.53;2.10;;;7.20;99.90;;;;;;5071109;28;20279;-74
2021/12/14 07:07:27;;;;;;;8.60;2.63;;;7.20;99.90;;;;;;5070897;28;20180;-74
2021/12/14 07:09:57;;;;;;;1.93;1.83;;;7.20;99.90;;;;;;5071113;28;20376;-74
2021/12/14 07:12:35;;;;;;;5.73;3.20;;;7.20;99.90;;;;;;5070487;28;20176;-74
2021/12/14 07:15:12;;;;;;;5.17;2.07;;;7.20;99.90;;;;;;5071097;28;20212;-74
2021/12/14 07:17:44;;;;;;;3.00;2.70;;;7.20;99.90;;;;;;5070697;28;20639;-74
2021/12/14 07:20:28;;;;;;;0.70;0.67;;;7.20;99.90;;;;;;5070815;28;20187;-75
2021/12/14 07:22:57;;;;;;;7.70;2.03;;;7.20;99.90;;;;;;5070741;28;20222;-75
2021/12/14 07:25:28;;;;;;;1.43;1.33;;;7.30;99.90;;;;;;5069600;28;20188;-75
2021/12/14 07:28:04;;;;;;;2.73;2.53;;;7.30;99.90;;;;;;5070591;28;20188;-76
2021/12/14 07:30:35;;;;;;;1.10;0.97;;;7.30;99.90;;;;;;5070705;28;20231;-75
2021/12/14 07:33:03;;;;;;;1.70;1.60;;;7.30;99.90;;;;;;5070860;28;20208;-75
2021/12/14 07:35:34;;;;;;;0.77;0.73;;;7.30;99.90;;;;;;5070334;28;20227;-75
2021/12/14 07:38:23;;;;;;;2.00;1.90;;;7.30;99.90;;;;;;5069255;28;20176;-75
2021/12/14 07:41:11;;;;;;;6.67;3.43;;;7.30;99.90;;;;;;5051278;28;20181;-75
2021/12/14 07:43:45;;;;;;;1.03;1.03;;;7.30;99.90;;;;;;5060021;28;20220;-75
2021/12/14 07:46:19;;;;;;;1.60;1.50;;;7.40;99.90;;;;;;5051366;28;20721;-74
2021/12/14 07:48:49;;;;;;;1.33;1.30;;;7.40;99.90;;;;;;5058698;28;20172;-74
2021/12/14 07:51:16;;;;;;;0.90;0.90;;;7.40;99.90;;;;;;5056576;28;20199;-73
2021/12/14 07:53:46;;;;;;;0.40;0.40;;;7.50;99.90;;;;;;5060041;28;20197;-74
2021/12/14 07:56:27;;;;;;;3.27;3.03;;;7.50;99.90;;;;;;5068982;28;20189;-74
2021/12/14 07:58:54;;;;;;;0.90;0.90;;;7.40;99.90;;;;;;5068726;28;20262;-73
2021/12/14 08:01:20;;;;;;;1.33;1.33;;;7.40;99.90;;;;;;5063437;28;20757;-73
2021/12/14 08:03:46;;;;;;;2.70;2.50;;;7.40;99.90;;;;;;5070332;28;20310;-73
2021/12/14 08:06:14;;;;;;;1.53;1.07;;;7.50;99.90;;;;;;5068903;28;20271;-73
2021/12/14 08:08:53;;;;;;;1.67;1.57;;;7.40;99.90;;;;;;5073206;28;20176;-73
2021/12/14 08:11:40;;;;;;;3.80;1.47;;;7.40;99.90;;;;;;5074154;28;20180;-73
2021/12/14 08:14:23;;;;;;;1.03;1.03;;;7.40;99.90;;;;;;5068909;28;20216;-73
2021/12/14 08:16:57;;;;;;;0.77;0.77;;;7.40;99.90;;;;;;5051532;28;20177;-73
2021/12/14 08:19:39;;;;;;;3.87;1.93;;;7.40;99.90;;;;;;5064049;28;20188;-73
2021/12/14 08:22:27;;;;;;;1.70;1.50;;;7.40;99.90;;;;;;5074145;28;20187;-73
2021/12/14 08:24:53;;;;;;;2.17;2.00;;;7.40;99.90;;;;;;5073728;28;20208;-73
2021/12/14 08:27:28;;;;;;;0.80;0.80;;;7.40;99.90;;;;;;5073436;28;20558;-73
2021/12/14 08:29:58;;;;;;;0.43;0.43;;;7.40;99.90;;;;;;5074840;28;20182;-73
2021/12/14 08:32:30;;;;;;;1.47;1.37;;;7.40;99.90;;;;;;5073634;28;20685;-73
2021/12/14 08:34:58;;;;;;;0.87;0.87;;;7.40;99.90;;;;;;5073563;28;20223;-73
2021/12/14 08:37:32;;;;;;;1.03;0.87;;;7.40;99.90;;;;;;5071974;28;20203;-73
2021/12/14 08:40:09;;;;;;;1.20;1.20;;;7.40;99.90;;;;;;5061399;28;20624;-73
2021/12/14 08:43:02;;;;;;;0.63;0.50;;;7.40;99.90;;;;;;5062983;28;20230;-73
2021/12/14 08:45:33;;;;;;;0.60;0.60;;;7.50;99.90;;;;;;5073457;28;20222;-73
2021/12/14 08:48:02;;;;;;;2.23;2.00;;;7.50;99.90;;;;;;5068254;28;20190;-73
2021/12/14 08:50:29;;;;;;;0.57;0.57;;;7.50;99.90;;;;;;5073440;28;20196;-73
2021/12/14 08:52:55;;;;;;;3.97;3.70;;;7.50;99.90;;;;;;5073352;28;20209;-73
2021/12/14 08:55:23;;;;;;;0.70;0.70;;;7.50;99.90;;;;;;5073132;28;20208;-73
2021/12/14 08:57:49;;;;;;;1.90;1.80;;;7.50;99.90;;;;;;5072963;28;20182;-73
2021/12/14 09:00:19;;;;;;;1.07;0.90;;;7.50;99.90;;;;;;5073273;28;20165;-74
2021/12/14 09:02:46;;;;;;;0.23;0.23;;;7.50;99.90;;;;;;5072023;28;20615;-71
2021/12/14 09:05:20;;;;;;;0.37;0.37;;;7.50;99.90;;;;;;5073272;28;20176;-72
2021/12/14 09:07:46;;;;;;;2.00;1.80;;;7.50;99.90;;;;;;5072764;28;20246;-73
2021/12/14 09:10:16;;;;;;;1.40;1.30;;;7.50;99.90;;;;;;5073203;28;20659;-72
2021/12/14 09:12:45;;;;;;;0.73;0.73;;;7.50;99.90;;;;;;5072925;28;20192;-72
2021/12/14 09:15:15;;;;;;;0.93;0.90;;;7.50;99.90;;;;;;5073075;28;20204;-73
2021/12/14 09:17:42;;;;;;;0.20;0.20;;;7.60;99.90;;;;;;5071392;28;20651;-72
2021/12/14 09:20:12;;;;;;;0.20;0.20;;;7.50;99.90;;;;;;5072714;28;20326;-73
2021/12/14 09:22:41;;;;;;;1.53;1.40;;;7.60;99.90;;;;;;5071570;28;20184;-73
2021/12/14 09:25:11;;;;;;;1.83;1.73;;;7.60;99.90;;;;;;5072508;28;20207;-71
2021/12/14 09:27:37;;;;;;;0.93;0.40;;;7.60;99.90;;;;;;5069912;28;20241;-70
2021/12/14 09:30:06;;;;;;;0.97;0.87;;;7.60;99.90;;;;;;5052116;28;20188;-73
2021/12/14 09:32:34;;;;;;;4.57;1.80;;;7.60;99.90;;;;;;5060463;28;20204;-71
2021/12/14 09:35:01;;;;;;;2.57;2.37;;;7.60;99.90;;;;;;5072376;28;20204;-72
2021/12/14 09:37:28;;;;;;;0.93;0.80;;;7.70;99.90;;;;;;5072244;28;20204;-73
2021/12/14 09:40:07;;;;;;;1.00;0.60;;;7.70;99.90;;;;;;5060702;28;20737;-73
2021/12/14 09:42:34;;;;;;;0.77;0.77;;;7.70;99.90;;;;;;5061713;28;20206;-73
2021/12/14 09:45:08;;;;;;;0.70;0.63;;;7.70;99.90;;;;;;5070995;28;20204;-73
2021/12/14 09:47:34;;;;;;;1.10;0.93;;;7.70;99.90;;;;;;5065916;28;20594;-73
2021/12/14 09:50:27;;;;;;;2.60;2.07;;;7.70;99.90;;;;;;5070969;28;20237;-73
2021/12/14 09:52:54;;;;;;;0.70;0.70;;;7.70;99.90;;;;;;5072220;28;20234;-74
2021/12/14 09:55:31;;;;;;;3.90;0.80;;;7.70;99.90;;;;;;5071784;28;20250;-73
2021/12/14 09:58:01;;;;;;;2.20;0.87;;;7.80;99.90;;;;;;5070548;28;20184;-74
2021/12/14 10:00:46;;;;;;;1.27;0.80;;;7.80;99.90;;;;;;5072246;28;20192;-74
2021/12/14 10:03:12;;;;;;;1.07;1.07;;;7.80;99.90;;;;;;5071982;28;20207;-73
2021/12/14 10:05:43;;;;;;;1.10;1.10;;;7.80;99.90;;;;;;5071897;28;20264;-73
2021/12/14 10:08:17;;;;;;;0.83;0.83;;;7.80;99.90;;;;;;5071776;28;20172;-73
2021/12/14 10:10:48;;;;;;;1.33;1.23;;;7.90;99.90;;;;;;5071857;28;20608;-73
2021/12/14 10:13:14;;;;;;;2.37;1.60;;;7.90;99.90;;;;;;5071932;28;20215;-73
2021/12/14 10:15:48;;;;;;;1.83;1.43;;;7.90;99.90;;;;;;5071552;28;20566;-74
2021/12/14 10:18:28;;;;;;;0.93;0.93;;;7.90;99.90;;;;;;5071976;28;20204;-73
2021/12/14 10:21:12;;;;;;;1.27;1.17;;;7.90;99.90;;;;;;5071669;28;20548;-73
2021/12/14 10:23:40;;;;;;;1.00;0.97;;;8.00;99.90;;;;;;5071620;28;20219;-74
2021/12/14 10:26:07;;;;;;;0.50;0.50;;;8.00;99.90;;;;;;5071127;28;20191;-74
2021/12/14 10:28:35;;;;;;;3.47;1.30;;;8.00;99.90;;;;;;5071577;28;20180;-73
2021/12/14 10:31:09;;;;;;;0.63;0.50;;;8.00;99.90;;;;;;5070889;28;20602;-74
2021/12/14 10:33:38;;;;;;;2.23;1.77;;;8.00;99.90;;;;;;5071367;28;20236;-73
2021/12/14 10:36:17;;;;;;;0.97;0.93;;;8.00;99.90;;;;;;5069893;28;20197;-73
2021/12/14 10:39:04;;;;;;;0.33;0.33;;;8.00;99.90;;;;;;5069618;28;20187;-74
2021/12/14 10:44:12;;;;;;;2.90;1.13;;;8.00;99.90;;;;;;5071486;28;20306;-73
2021/12/14 10:46:45;;;;;;;0.43;0.43;;;8.00;99.90;;;;;;5066138;28;20746;-73
2021/12/14 10:49:14;;;;;;;1.07;1.07;;;8.00;99.90;;;;;;5070028;28;20180;-73
2021/12/14 10:51:42;;;;;;;1.20;1.10;;;8.00;99.90;;;;;;5069831;28;20188;-75
2021/12/14 10:54:12;;;;;;;0.97;0.97;;;8.00;99.90;;;;;;5069984;28;20218;-74
2021/12/14 10:56:50;;;;;;;4.00;2.30;;;8.10;99.90;;;;;;5070903;28;20176;-73
2021/12/14 10:59:19;;;;;;;1.17;0.43;;;8.10;99.90;;;;;;5071187;28;20180;-73
2021/12/14 11:01:49;;;;;;;0.20;0.20;;;8.10;99.90;;;;;;5070975;28;20180;-73
2021/12/14 11:04:51;;;;;;;0.50;0.50;;;8.10;99.90;;;;;;5071619;28;20294;-73
2021/12/14 11:07:41;;;;;;;2.87;2.77;;;8.10;99.90;;;;;;5070817;28;20601;-73
2021/12/14 11:10:18;;;;;;;2.40;2.20;;;8.10;99.90;;;;;;5071128;28;20176;-73
2021/12/14 11:12:49;;;;;;;0.67;0.67;;;8.10;99.90;;;;;;5070667;28;20179;-73
2021/12/14 11:15:21;;;;;;;0.70;0.70;;;8.10;99.90;;;;;;5069738;28;20269;-75
2021/12/14 11:18:09;;;;;;;2.13;1.93;;;8.20;99.90;;;;;;5070965;28;20458;-75
2021/12/14 11:20:40;;;;;;;5.63;1.60;;;8.20;99.90;;;;;;5070956;28;20184;-75
2021/12/14 11:23:17;;;;;;;1.53;1.43;;;8.20;99.90;;;;;;5069232;28;20223;-75
2021/12/14 11:25:51;;;;;;;1.83;1.73;;;8.20;99.90;;;;;;5070907;28;20497;-75
2021/12/14 11:28:47;;;;;;;1.37;1.07;;;8.20;99.90;;;;;;5070858;28;20660;-74
2021/12/14 11:31:23;;;;;;;3.27;3.07;;;8.30;99.90;;;;;;5071070;28;20187;-75
2021/12/14 11:33:56;;;;;;;4.03;1.90;;;8.30;99.90;;;;;;5070651;28;20203;-75
2021/12/14 11:36:31;;;;;;;3.13;2.80;;;8.30;99.90;;;;;;5069405;28;20305;-75
2021/12/14 11:39:05;;;;;;;0.83;0.83;;;8.30;99.90;;;;;;5066954;28;20528;-74
2021/12/14 11:41:40;;;;;;;4.40;2.93;;;8.30;99.90;;;;;;5050235;28;20184;-74
2021/12/14 11:44:21;;;;;;;1.73;1.63;;;8.40;99.90;;;;;;5074191;28;20202;-75
2021/12/14 11:46:53;;;;;;;3.50;2.20;;;8.30;99.90;;;;;;5069784;28;20183;-75
2021/12/14 11:49:21;;;;;;;4.33;2.60;;;8.40;99.90;;;;;;5073342;28;20180;-74
2021/12/14 11:51:47;;;;;;;0.60;0.60;;;8.40;99.90;;;;;;5055713;28;20521;-74
2021/12/14 11:54:16;;;;;;;3.20;2.63;;;8.30;99.90;;;;;;5062923;28;20215;-75
2021/12/14 11:56:42;;;;;;;2.33;2.17;;;8.30;99.90;;;;;;5072628;28;20192;-73
2021/12/14 11:59:09;;;;;;;4.13;3.50;;;8.40;99.90;;;;;;5066763;28;20175;-72
2021/12/14 12:01:44;;;;;;;2.47;1.33;;;8.40;99.90;;;;;;5072826;28;20183;-75
2021/12/14 12:04:24;;;;;;;1.40;1.03;;;8.30;99.90;;;;;;5074201;28;20203;-74
2021/12/14 12:09:37;;;;;;;1.57;1.47;;;8.40;99.90;;;;;;5071197;28;20172;-75
2021/12/14 12:12:08;;;;;;;0.77;0.77;;;8.40;99.90;;;;;;5074171;28;20172;-74
2021/12/14 12:14:48;;;;;;;4.70;3.20;;;8.50;99.90;;;;;;5073820;28;20251;-74
2021/12/14 12:17:18;;;;;;;2.30;1.97;;;8.50;99.90;;;;;;5073636;28;20172;-76
2021/12/14 12:20:00;;;;;;;5.83;2.27;;;8.40;99.90;;;;;;5072611;28;20180;-74
2021/12/14 12:22:31;;;;;;;7.27;3.23;;;8.50;99.90;;;;;;5072628;28;20199;-74
2021/12/14 12:24:58;;;;;;;6.13;1.63;;;8.50;99.90;;;;;;5064085;28;20630;-74
2021/12/14 12:27:33;;;;;;;3.33;2.47;;;8.50;99.90;;;;;;5069209;28;20187;-75
2021/12/14 12:30:07;;;;;;;7.13;4.33;;;8.50;99.90;;;;;;5073502;28;20667;-74
2021/12/14 12:32:33;;;;;;;1.90;1.80;;;8.50;99.90;;;;;;5073916;28;20255;-74
2021/12/14 12:34:59;;;;;;;3.50;2.00;;;8.50;99.90;;;;;;5073496;28;20645;-74
2021/12/14 12:37:44;;;;;;;2.30;2.10;;;8.60;99.90;;;;;;5072005;28;20230;-73
2021/12/14 12:40:13;;;;;;;0.63;0.63;;;8.60;99.90;;;;;;5059555;28;20591;-74
2021/12/14 12:42:39;;;;;;;2.03;1.60;;;8.70;99.90;;;;;;5063650;28;20612;-74
2021/12/14 12:45:22;;;;;;;1.33;1.23;;;8.70;99.90;;;;;;5073470;28;20192;-74
2021/12/14 12:47:48;;;;;;;0.30;0.30;;;8.70;99.90;;;;;;5068435;28;20272;-74
2021/12/14 12:50:13;;;;;;;3.03;2.73;;;8.70;99.90;;;;;;5072339;28;20212;-75
2021/12/14 12:52:39;;;;;;;1.27;1.20;;;8.80;99.90;;;;;;5053551;28;20180;-74
2021/12/14 12:55:06;;;;;;;3.13;2.43;;;8.70;99.90;;;;;;5071409;28;20693;-74
2021/12/14 12:57:37;;;;;;;3.03;2.13;;;8.70;99.90;;;;;;5072981;28;20173;-74
2021/12/14 13:00:37;;;;;;;2.20;2.00;;;8.70;99.90;;;;;;5073129;28;20319;-74
2021/12/14 13:03:18;;;;;;;6.60;2.07;;;8.80;99.90;;;;;;5073019;28;20189;-74
2021/12/14 13:05:46;;;;;;;1.67;1.23;;;8.80;99.90;;;;;;5073241;28;20184;-73
2021/12/14 13:08:27;;;;;;;3.93;1.93;;;8.90;99.90;;;;;;5071836;28;20188;-72
2021/12/14 13:11:07;;;;;;;6.80;2.40;;;9.00;99.90;;;;;;5072844;28;20279;-73
2021/12/14 13:14:01;;;;;;;0.70;0.70;;;9.00;99.90;;;;;;5072834;28;20279;-74
2021/12/14 13:16:38;;;;;;;1.63;1.53;;;9.10;99.90;;;;;;5071026;28;20211;-72
2021/12/14 13:19:10;;;;;;;1.90;1.40;;;9.10;99.90;;;;;;5072787;28;20191;-73
2021/12/14 13:22:09;;;;;;;1.37;1.33;;;9.10;99.90;;;;;;5072761;28;20187;-73
2021/12/14 13:24:39;;;;;;;4.17;3.60;;;9.10;99.90;;;;;;5036016;28;20224;-72
2021/12/14 13:27:12;;;;;;;3.73;2.33;;;9.10;99.90;;;;;;5066432;28;20181;-74
2021/12/14 13:29:40;;;;;;;1.60;1.47;;;9.10;99.90;;;;;;5071671;28;20263;-72
2021/12/14 13:32:24;;;;;;;2.30;2.10;;;9.10;99.90;;;;;;5072415;28;20242;-73
2021/12/14 13:34:59;;;;;;;1.83;1.70;;;9.00;99.90;;;;;;5072483;28;20296;-73
2021/12/14 13:37:47;;;;;;;5.50;2.27;;;8.90;99.90;;;;;;5070525;28;20229;-74
2021/12/14 13:40:26;;;;;;;2.87;2.67;;;8.90;99.90;;;;;;5057984;28;20667;-74
2021/12/14 13:43:09;;;;;;;0.87;0.87;;;8.90;99.90;;;;;;5063699;28;20194;-75
2021/12/14 13:45:42;;;;;;;2.63;2.43;;;8.90;99.90;;;;;;5072260;28;20491;-73
2021/12/14 13:48:12;;;;;;;2.43;1.57;;;8.90;99.90;;;;;;5067236;28;20192;-74
2021/12/14 13:50:45;;;;;;;2.37;2.17;;;8.90;99.90;;;;;;5072280;28;20184;-76
2021/12/14 13:53:11;;;;;;;1.87;1.77;;;8.80;99.90;;;;;;5052840;28;20211;-74
2021/12/14 13:55:43;;;;;;;2.97;2.43;;;8.80;99.90;;;;;;5062990;28;20205;-72
2021/12/14 13:58:17;;;;;;;2.10;0.83;;;8.80;99.90;;;;;;5064287;28;20583;-74